Astra — PB4187 — position and weather

sailwx.info

Track history (hours):
 
Tides and Currents Weather Stations Pressure Air Temp Water Temp Dewpoint Dewpoint Depression Visibility Wind Speed Wind Dir Waves Ship Positions

Astra

Last reported at 2016-Jul-23 16:18 UTC. Time now 2016-Jul-27 01:14 UTC.
Position N 50°57' E 006°59'.

Length 110 m.

Type: Ship. MMSI: 244650752.

Date/timePositionNaut miles runAvg speedWind from/ knotsBaromVisibWave heightAir tempDewpointWater temp
2016-Jul-23 16:18N 50°57' E 006°59'0 0.0
2016-Jul-23 15:31N 50°57' E 006°59'0 0.0
2016-Jul-23 14:31N 50°57' E 006°59'0 0.0
2016-Jul-23 13:22N 50°57' E 006°59'0 0.0
2016-Jul-23 12:12N 50°57' E 006°59'0 0.0
2016-Jul-23 10:32N 50°57' E 006°59'0 0.0
2016-Jul-23 09:23N 50°57' E 006°59'0 0.0
2016-Jul-22 21:19N 50°57' E 006°59'0 0.0
2016-Jul-22 19:12N 50°57' E 006°59'0 0.0
2016-Jul-22 17:11N 50°57' E 006°59'0 0.2
2016-Jul-22 16:11N 50°58' E 006°60'4 6.0
2016-Jul-22 15:30N 50°54' E 007°02'4 0.2
2016-Jul-21 14:33N 50°49' E 006°60'0 0.2
2016-Jul-21 13:27N 50°50' E 006°59'0 0.0
2016-Jul-21 12:31N 50°50' E 006°59'0 0.0
2016-Jul-21 11:33N 50°50' E 006°59'0 0.0
2016-Jul-21 10:32N 50°50' E 006°59'0 0.0
2016-Jul-21 09:32N 50°50' E 006°59'0 0.0
2016-Jul-21 06:10N 50°50' E 006°59'0 0.0
2016-Jul-21 04:29N 50°50' E 006°59'0 0.0
2016-Jul-21 03:27N 50°50' E 006°59'8 8.4
2016-Jul-21 02:32N 50°44' E 007°07'97 8.5
2016-Jul-20 15:11N 49°23' E 008°30'610.0
2016-Jul-20 14:33N 49°17' E 008°27'1312.8
2016-Jul-20 13:33N 49°05' E 008°20'93 4.4
2016-Jul-19 16:19N 47°37' E 007°35'4 5.0
2016-Jul-19 15:32N 47°34' E 007°38'0 0.3
2016-Jul-19 14:33N 47°34' E 007°38'0 0.1
2016-Jul-19 13:34N 47°33' E 007°38'0 0.0
2016-Jul-19 12:33N 47°33' E 007°38'0 0.0
2016-Jul-19 11:33N 47°33' E 007°38'0 0.0
2016-Jul-19 10:33N 47°33' E 007°38'0 0.0
2016-Jul-19 09:33N 47°33' E 007°38'0 0.0
2016-Jul-19 08:33N 47°33' E 007°38'0 0.0
2016-Jul-19 07:33N 47°33' E 007°38'0 0.0
2016-Jul-19 04:33N 47°33' E 007°38'0 0.0
2016-Jul-19 03:33N 47°33' E 007°38'0 0.0
2016-Jul-19 02:33N 47°33' E 007°38'0 0.0
2016-Jul-19 01:33N 47°33' E 007°38'0 0.0
2016-Jul-19 00:33N 47°33' E 007°38'0 0.0
2016-Jul-18 23:33N 47°33' E 007°38'0 0.0
2016-Jul-18 22:34N 47°33' E 007°38'0 0.0
2016-Jul-18 21:33N 47°33' E 007°38'0 0.0
2016-Jul-18 20:33N 47°33' E 007°38'0 0.0
2016-Jul-18 19:33N 47°33' E 007°38'0 0.0
2016-Jul-18 18:33N 47°33' E 007°38'1 0.6
2016-Jul-18 17:33N 47°34' E 007°37'2 1.8
2016-Jul-18 16:33N 47°34' E 007°35'5 4.5
2016-Jul-18 15:29N 47°39' E 007°32'85 3.8
2016-Jul-17 17:23N 48°59' E 008°15'3 3.8
2016-Jul-17 16:33N 49°01' E 008°18'4 3.8
2016-Jul-17 15:33N 49°05' E 008°20'4 3.9
2016-Jul-17 14:33N 49°08' E 008°22'4 4.0
2016-Jul-17 13:33N 49°12' E 008°23'4 4.0
2016-Jul-17 12:33N 49°16' E 008°26'3 3.3
2016-Jul-17 11:33N 49°19' E 008°28'95 3.7
2016-Jul-16 09:33N 50°40' E 007°11'5 4.9
2016-Jul-16 08:33N 50°44' E 007°07'5 4.8
2016-Jul-16 07:30N 50°48' E 007°02'3 2.5
2016-Jul-16 06:11N 50°51' E 006°59'0 0.0
2016-Jul-16 04:31N 50°51' E 006°59'0 0.0
2016-Jul-16 03:33N 50°51' E 006°59'0 0.0
2016-Jul-16 01:09N 50°51' E 006°59'0 0.0
2016-Jul-16 00:32N 50°51' E 006°59'0 0.0
2016-Jul-15 23:32N 50°51' E 006°59'0 0.0
2016-Jul-15 22:32N 50°51' E 006°59'0 0.0
2016-Jul-15 15:18N 50°51' E 006°59'1 1.8
2016-Jul-15 14:33N 50°50' E 006°59'1010.3
2016-Jul-15 13:33N 50°42' E 007°10'94 8.4
2016-Jul-15 02:24N 49°23' E 008°30'7 7.9
2016-Jul-15 01:33N 49°17' E 008°27'1010.0
2016-Jul-15 00:33N 49°07' E 008°22'  
Track history (hours):
 
Tides and Currents Weather Stations Pressure Air Temp Water Temp Dewpoint Dewpoint Depression Visibility Wind Speed Wind Dir Waves Ship Positions

Astra

Last reported at 2016-Jul-23 16:18 UTC. Time now 2016-Jul-27 01:14 UTC.
Position N 50°57' E 006°59'.

Length 110 m.

Type: Ship. MMSI: 244650752.

Date/timePositionNaut miles runAvg speedWind from/ knotsBaromVisibWave heightAir tempDewpointWater temp
2016-Jul-23 16:18N 50°57' E 006°59'0 0.0
2016-Jul-23 15:31N 50°57' E 006°59'0 0.0
2016-Jul-23 14:31N 50°57' E 006°59'0 0.0
2016-Jul-23 13:22N 50°57' E 006°59'0 0.0
2016-Jul-23 12:12N 50°57' E 006°59'0 0.0
2016-Jul-23 10:32N 50°57' E 006°59'0 0.0
2016-Jul-23 09:23N 50°57' E 006°59'0 0.0
2016-Jul-22 21:19N 50°57' E 006°59'0 0.0
2016-Jul-22 19:12N 50°57' E 006°59'0 0.0
2016-Jul-22 17:11N 50°57' E 006°59'0 0.2
2016-Jul-22 16:11N 50°58' E 006°60'4 6.0
2016-Jul-22 15:30N 50°54' E 007°02'4 0.2
2016-Jul-21 14:33N 50°49' E 006°60'0 0.2
2016-Jul-21 13:27N 50°50' E 006°59'0 0.0
2016-Jul-21 12:31N 50°50' E 006°59'0 0.0
2016-Jul-21 11:33N 50°50' E 006°59'0 0.0
2016-Jul-21 10:32N 50°50' E 006°59'0 0.0
2016-Jul-21 09:32N 50°50' E 006°59'0 0.0
2016-Jul-21 06:10N 50°50' E 006°59'0 0.0
2016-Jul-21 04:29N 50°50' E 006°59'0 0.0
2016-Jul-21 03:27N 50°50' E 006°59'8 8.4
2016-Jul-21 02:32N 50°44' E 007°07'97 8.5
2016-Jul-20 15:11N 49°23' E 008°30'610.0
2016-Jul-20 14:33N 49°17' E 008°27'1312.8
2016-Jul-20 13:33N 49°05' E 008°20'93 4.4
2016-Jul-19 16:19N 47°37' E 007°35'4 5.0
2016-Jul-19 15:32N 47°34' E 007°38'0 0.3
2016-Jul-19 14:33N 47°34' E 007°38'0 0.1
2016-Jul-19 13:34N 47°33' E 007°38'0 0.0
2016-Jul-19 12:33N 47°33' E 007°38'0 0.0
2016-Jul-19 11:33N 47°33' E 007°38'0 0.0
2016-Jul-19 10:33N 47°33' E 007°38'0 0.0
2016-Jul-19 09:33N 47°33' E 007°38'0 0.0
2016-Jul-19 08:33N 47°33' E 007°38'0 0.0
2016-Jul-19 07:33N 47°33' E 007°38'0 0.0
2016-Jul-19 04:33N 47°33' E 007°38'0 0.0
2016-Jul-19 03:33N 47°33' E 007°38'0 0.0
2016-Jul-19 02:33N 47°33' E 007°38'0 0.0
2016-Jul-19 01:33N 47°33' E 007°38'0 0.0
2016-Jul-19 00:33N 47°33' E 007°38'0 0.0
2016-Jul-18 23:33N 47°33' E 007°38'0 0.0
2016-Jul-18 22:34N 47°33' E 007°38'0 0.0
2016-Jul-18 21:33N 47°33' E 007°38'0 0.0
2016-Jul-18 20:33N 47°33' E 007°38'0 0.0
2016-Jul-18 19:33N 47°33' E 007°38'0 0.0
2016-Jul-18 18:33N 47°33' E 007°38'1 0.6
2016-Jul-18 17:33N 47°34' E 007°37'2 1.8
2016-Jul-18 16:33N 47°34' E 007°35'5 4.5
2016-Jul-18 15:29N 47°39' E 007°32'85 3.8
2016-Jul-17 17:23N 48°59' E 008°15'3 3.8
2016-Jul-17 16:33N 49°01' E 008°18'4 3.8
2016-Jul-17 15:33N 49°05' E 008°20'4 3.9
2016-Jul-17 14:33N 49°08' E 008°22'4 4.0
2016-Jul-17 13:33N 49°12' E 008°23'4 4.0
2016-Jul-17 12:33N 49°16' E 008°26'3 3.3
2016-Jul-17 11:33N 49°19' E 008°28'95 3.7
2016-Jul-16 09:33N 50°40' E 007°11'5 4.9
2016-Jul-16 08:33N 50°44' E 007°07'5 4.8
2016-Jul-16 07:30N 50°48' E 007°02'3 2.5
2016-Jul-16 06:11N 50°51' E 006°59'0 0.0
2016-Jul-16 04:31N 50°51' E 006°59'0 0.0
2016-Jul-16 03:33N 50°51' E 006°59'0 0.0
2016-Jul-16 01:09N 50°51' E 006°59'0 0.0
2016-Jul-16 00:32N 50°51' E 006°59'0 0.0
2016-Jul-15 23:32N 50°51' E 006°59'0 0.0
2016-Jul-15 22:32N 50°51' E 006°59'0 0.0
2016-Jul-15 15:18N 50°51' E 006°59'1 1.8
2016-Jul-15 14:33N 50°50' E 006°59'1010.3
2016-Jul-15 13:33N 50°42' E 007°10'94 8.4
2016-Jul-15 02:24N 49°23' E 008°30'7 7.9
2016-Jul-15 01:33N 49°17' E 008°27'1010.0
2016-Jul-15 00:33N 49°07' E 008°22'  

Dump ship's entire track history